Time;durP1;ratioP1;P1;durP2;ratioP2;P2;SDS_P1;SDS_P2;PMS_P1;PMS_P2;Temp;Humidity;BMP_temperature;BMP_pressure;BME280_temperature;BME280_humidity;BME280_pressure;Samples;Min_cycle;Max_cycle;Signal;HPM_P1;HPM_P2
2022/03/03 00:00:50;;;;;;;7.30;4.30;;;;;;;5.13;69.69;99040.90;25134;1313;3051749;-69
2022/03/03 00:03:19;;;;;;;8.40;4.60;;;;;;;4.98;70.29;99042.79;25115;1312;3026453;-69
2022/03/03 00:05:48;;;;;;;9.70;5.50;;;;;;;4.82;70.73;99043.49;25099;1313;3026511;-68
2022/03/03 00:08:17;;;;;;;12.00;6.80;;;;;;;4.66;71.41;99041.77;25128;1312;3026864;-72
2022/03/03 00:10:46;;;;;;;14.50;7.40;;;;;;;4.48;72.15;99038.52;25096;1313;3053107;-64
2022/03/03 00:13:15;;;;;;;11.70;6.50;;;;;;;4.37;72.55;99037.06;25097;1312;3026764;-71
2022/03/03 00:15:44;;;;;;;13.70;7.40;;;;;;;4.26;72.96;99034.60;25102;1313;3054380;-67
2022/03/03 00:18:14;;;;;;;12.40;5.50;;;;;;;4.14;73.46;99026.75;25060;1313;3026714;-63
2022/03/03 00:20:43;;;;;;;14.90;5.50;;;;;;;4.12;73.51;99024.77;25060;1313;3048221;-61
2022/03/03 00:23:12;;;;;;;12.40;5.00;;;;;;;4.64;72.51;99019.30;25141;1313;3027487;-63
2022/03/03 00:25:41;;;;;;;11.30;4.90;;;;;;;5.20;70.44;99009.32;25115;1313;3070521;-66
2022/03/03 00:28:10;;;;;;;9.90;4.90;;;;;;;5.31;69.66;99006.06;25099;1312;3026645;-65
2022/03/03 00:30:40;;;;;;;9.80;5.40;;;;;;;5.18;69.76;98995.54;25125;1313;3050160;-67
2022/03/03 00:33:09;;;;;;;12.50;5.30;;;;;;;5.03;70.04;98991.02;25076;1313;3026436;-67
2022/03/03 00:35:38;;;;;;;15.90;8.90;;;;;;;4.81;70.76;98985.77;25126;1313;3052870;-66
2022/03/03 00:38:09;;;;;;;20.00;9.60;;;;;;;4.63;71.37;98978.20;25087;1312;3026834;-66
2022/03/03 00:40:39;;;;;;;19.80;11.80;;;;;;;4.52;71.79;98975.40;25123;1313;3026479;-69
2022/03/03 00:43:08;;;;;;;21.60;11.10;;;;;;;4.46;72.04;98970.45;25113;1312;3028477;-69
2022/03/03 00:45:37;;;;;;;19.50;10.20;;;;;;;4.37;72.63;98971.54;25061;1313;3026504;-70
2022/03/03 00:48:06;;;;;;;13.20;7.90;;;;;;;4.28;72.87;98964.27;25118;1313;3026560;-61
2022/03/03 00:50:35;;;;;;;15.00;7.80;;;;;;;4.19;72.96;98959.11;25099;1313;3026819;-70
2022/03/03 00:53:04;;;;;;;11.90;6.60;;;;;;;4.17;73.24;98958.84;25102;1312;3050741;-69
2022/03/03 00:55:33;;;;;;;9.70;5.30;;;;;;;4.68;71.91;98958.37;25111;1313;3026481;-65
2022/03/03 00:58:03;;;;;;;8.90;5.40;;;;;;;5.24;69.70;98952.89;25169;1313;3047603;-72
2022/03/03 01:00:33;;;;;;;10.30;5.50;;;;;;;5.32;69.00;98943.86;25146;1313;3027564;-70
2022/03/03 01:03:02;;;;;;;13.80;5.90;;;;;;;5.13;69.43;98941.07;25093;1313;3026634;-69
2022/03/03 01:05:31;;;;;;;9.60;5.50;;;;;;;4.97;70.11;98940.77;25106;1313;3026669;-66
2022/03/03 01:08:00;;;;;;;12.10;7.10;;;;;;;4.83;70.68;98939.52;25108;1315;3054250;-71
2022/03/03 01:10:29;;;;;;;9.90;6.70;;;;;;;4.72;71.14;98940.35;25108;1313;3026452;-62
2022/03/03 01:12:58;;;;;;;10.10;6.80;;;;;;;4.64;71.57;98939.83;25139;1312;3049138;-65
2022/03/03 01:15:28;;;;;;;11.80;7.00;;;;;;;4.49;72.02;98939.78;25149;1313;3026325;-68
2022/03/03 01:17:56;;;;;;;12.00;7.40;;;;;;;4.44;72.31;98938.97;25113;1312;3026934;-71
2022/03/03 01:20:27;;;;;;;11.90;6.50;;;;;;;4.35;72.51;98935.36;25111;1313;3048228;-72
2022/03/03 01:22:56;;;;;;;11.80;6.40;;;;;;;4.25;72.78;98935.11;25129;1312;3026961;-67
2022/03/03 01:25:26;;;;;;;9.00;5.10;;;;;;;4.20;72.98;98936.17;25108;1313;3027046;-66
2022/03/03 01:27:54;;;;;;;10.40;6.00;;;;;;;4.68;71.81;98922.27;25130;1312;3027558;-68
2022/03/03 01:30:25;;;;;;;11.90;5.90;;;;;;;5.30;70.13;98913.51;25095;1313;3054497;-61
2022/03/03 01:32:54;;;;;;;10.30;6.70;;;;;;;5.35;69.49;98911.39;25129;1313;3026747;-69
2022/03/03 01:35:23;;;;;;;13.70;7.40;;;;;;;5.32;69.58;98916.04;25068;1313;3029043;-73
2022/03/03 01:37:52;;;;;;;13.10;7.40;;;;;;;5.07;70.01;98914.83;25128;1313;3053754;-69
2022/03/03 01:40:22;;;;;;;10.40;7.30;;;;;;;4.81;70.82;98916.70;25066;1312;3026224;-68
2022/03/03 01:42:52;;;;;;;14.60;9.00;;;;;;;4.68;71.63;98914.52;25061;1313;3051055;-72
2022/03/03 01:45:21;;;;;;;15.40;9.50;;;;;;;4.62;71.78;98914.09;25075;1313;3026748;-64
2022/03/03 01:47:50;;;;;;;14.10;9.00;;;;;;;4.48;72.30;98912.12;25112;1313;3026603;-71
2022/03/03 01:50:19;;;;;;;15.20;9.00;;;;;;;4.45;72.57;98912.41;25096;1313;3026202;-74
2022/03/03 01:52:48;;;;;;;15.70;9.80;;;;;;;4.39;72.72;98912.83;25087;1313;3055460;-71
2022/03/03 01:55:19;;;;;;;15.20;8.00;;;;;;;4.34;73.09;98917.20;25146;1313;3026642;-73
2022/03/03 01:57:49;;;;;;;12.90;8.20;;;;;;;4.86;72.01;98908.46;25102;1313;3026728;-67
2022/03/03 02:00:18;;;;;;;13.40;8.10;;;;;;;5.46;70.14;98907.41;25131;1313;3028510;-63
2022/03/03 02:02:47;;;;;;;13.40;8.20;;;;;;;5.52;69.58;98906.95;25106;1313;3027170;-68
2022/03/03 02:05:16;;;;;;;13.10;8.30;;;;;;;5.43;69.52;98903.02;25166;1313;3026576;-66
2022/03/03 02:07:46;;;;;;;12.90;8.50;;;;;;;5.29;69.76;98901.08;25188;1312;3050028;-72
2022/03/03 02:10:15;;;;;;;16.60;9.30;;;;;;;5.10;70.06;98899.05;25118;1312;3026563;-64
2022/03/03 02:12:44;;;;;;;17.50;9.30;;;;;;;4.86;70.52;98904.14;25121;1312;3028901;-73
2022/03/03 02:15:20;;;;;;;17.20;10.50;;;;;;;4.74;71.18;98902.78;25085;1313;3051422;-70
2022/03/03 02:17:49;;;;;;;16.50;9.10;;;;;;;4.59;71.53;98900.69;25116;1313;3056000;-70
2022/03/03 02:20:29;;;;;;;15.00;8.70;;;;;;;4.46;72.08;98900.23;25146;1313;3026658;-69
2022/03/03 02:22:58;;;;;;;18.70;10.60;;;;;;;4.42;72.39;98897.97;25099;1312;3069051;-72
2022/03/03 02:25:27;;;;;;;16.20;8.70;;;;;;;4.32;72.67;98897.55;25075;1312;3027160;-65
2022/03/03 02:27:56;;;;;;;15.90;8.10;;;;;;;4.29;72.71;98892.48;25122;1313;3026906;-63
2022/03/03 02:30:28;;;;;;;11.60;7.60;;;;;;;4.79;71.61;98887.11;25098;1313;3071197;-64
2022/03/03 02:32:57;;;;;;;18.00;9.00;;;;;;;5.42;69.86;98884.66;25047;1313;3026623;-69
2022/03/03 02:35:27;;;;;;;17.90;8.70;;;;;;;5.53;68.84;98887.08;25113;1313;3052028;-67
2022/03/03 02:37:56;;;;;;;19.60;9.60;;;;;;;5.40;69.03;98880.22;25113;1313;3026888;-66
2022/03/03 02:40:26;;;;;;;25.20;11.30;;;;;;;5.17;69.45;98878.39;25096;1313;3026689;-69
2022/03/03 02:42:55;;;;;;;22.90;12.80;;;;;;;5.00;70.12;98874.69;25071;1313;3027087;-72
2022/03/03 02:45:24;;;;;;;27.90;12.70;;;;;;;4.84;70.72;98870.23;25082;1312;3070955;-69
2022/03/03 02:47:53;;;;;;;25.60;12.00;;;;;;;4.73;71.03;98863.80;25117;1313;3026448;-68
2022/03/03 02:50:26;;;;;;;26.50;11.20;;;;;;;4.53;71.65;98866.95;25085;1312;3052827;-65
2022/03/03 02:53:01;;;;;;;26.20;11.50;;;;;;;4.48;71.98;98863.34;25098;1313;3027537;-66
2022/03/03 02:55:31;;;;;;;23.50;10.40;;;;;;;4.50;71.88;98863.80;25083;1312;3049310;-66
2022/03/03 02:57:59;;;;;;;25.60;10.90;;;;;;;4.48;72.02;98859.90;25104;1312;3027000;-62
2022/03/03 03:00:31;;;;;;;20.00;8.20;;;;;;;4.39;72.85;98861.35;25055;1312;3071210;-70
2022/03/03 03:03:00;;;;;;;27.70;9.90;;;;;;;4.85;72.28;98859.56;25124;1313;3028179;-69
2022/03/03 03:05:29;;;;;;;25.50;10.50;;;;;;;5.47;70.87;98853.31;25133;1313;3026388;-73
2022/03/03 03:07:58;;;;;;;25.50;11.10;;;;;;;5.63;70.22;98849.56;25093;1313;3068149;-68
2022/03/03 03:10:27;;;;;;;32.50;12.80;;;;;;;5.52;70.34;98849.61;25106;1312;3026301;-64
2022/03/03 03:12:56;;;;;;;27.50;12.40;;;;;;;5.36;70.51;98846.23;25090;1313;3052756;-70
2022/03/03 03:15:26;;;;;;;36.30;14.30;;;;;;;5.01;71.56;98845.84;25086;1313;3026473;-66
2022/03/03 03:17:55;;;;;;;30.00;14.10;;;;;;;4.83;72.34;98843.86;25050;1313;3026361;-65
2022/03/03 03:20:24;;;;;;;33.50;15.00;;;;;;;4.74;72.80;98841.86;25125;1313;3026764;-70
2022/03/03 03:22:54;;;;;;;43.20;16.50;;;;;;;4.66;73.14;98839.63;25115;1312;3070118;-66
2022/03/03 03:25:24;;;;;;;48.00;17.80;;;;;;;4.57;73.71;98838.36;25089;1313;3027503;-63
2022/03/03 03:27:54;;;;;;;42.20;15.50;;;;;;;4.52;74.49;98837.15;25131;1313;3029564;-70
2022/03/03 03:30:23;;;;;;;46.30;16.90;;;;;;;5.03;73.03;98834.96;25073;1313;3026462;-65
2022/03/03 03:32:52;;;;;;;47.20;17.20;;;;;;;5.58;71.44;98829.86;25123;1313;3049313;-67
2022/03/03 03:35:21;;;;;;;51.40;19.80;;;;;;;5.75;70.89;98826.41;25113;1313;3026602;-69
2022/03/03 03:37:50;;;;;;;45.30;18.00;;;;;;;5.55;70.93;98823.92;25111;1313;3070894;-66
2022/03/03 03:40:19;;;;;;;53.20;21.90;;;;;;;5.39;71.59;98825.59;25098;1313;3026714;-69
2022/03/03 03:42:48;;;;;;;58.20;20.30;;;;;;;5.32;72.14;98819.47;25183;1313;3051193;-72
2022/03/03 03:45:17;;;;;;;54.50;20.40;;;;;;;5.24;71.88;98816.40;25088;1313;3027070;-68
2022/03/03 03:47:46;;;;;;;55.00;21.60;;;;;;;5.14;72.18;98814.67;25134;1313;3055028;-66
2022/03/03 03:50:15;;;;;;;58.10;22.70;;;;;;;5.05;72.42;98807.11;25117;1313;3026572;-63
2022/03/03 03:52:45;;;;;;;72.40;24.10;;;;;;;4.99;72.61;98805.11;25068;1313;3052515;-74
2022/03/03 03:55:15;;;;;;;65.00;22.10;;;;;;;4.91;72.79;98794.73;25072;1313;3026755;-67
2022/03/03 03:57:45;;;;;;;45.60;18.00;;;;;;;4.88;72.82;98795.56;25071;1313;3027576;-67
2022/03/03 04:00:14;;;;;;;53.90;19.80;;;;;;;5.36;71.68;98796.02;25140;1313;3027194;-73
2022/03/03 04:02:44;;;;;;;56.90;20.20;;;;;;;5.98;70.20;98786.61;25126;1313;3054855;-66
2022/03/03 04:05:14;;;;;;;55.40;22.30;;;;;;;5.95;69.36;98783.84;25057;1313;3026728;-68
2022/03/03 04:07:44;;;;;;;55.70;21.40;;;;;;;5.84;69.63;98777.92;25112;1313;3026601;-69
2022/03/03 04:10:13;;;;;;;59.30;22.40;;;;;;;5.72;69.61;98782.21;25162;1313;3027926;-70
2022/03/03 04:12:42;;;;;;;60.00;23.90;;;;;;;5.60;69.99;98780.56;25125;1312;3026212;-67
2022/03/03 04:15:11;;;;;;;68.10;25.30;;;;;;;5.39;70.35;98779.89;25117;1313;3068941;-72
2022/03/03 04:17:40;;;;;;;65.90;24.70;;;;;;;5.32;70.87;98780.42;25138;1313;3026670;-61
2022/03/03 04:20:10;;;;;;;68.70;24.50;;;;;;;5.21;71.15;98774.73;25149;1313;3051385;-72
2022/03/03 04:22:41;;;;;;;72.90;25.00;;;;;;;5.11;71.48;98773.12;25150;1313;3026480;-71
2022/03/03 04:25:10;;;;;;;59.20;20.80;;;;;;;5.00;71.61;98767.25;25135;1313;3026291;-69
2022/03/03 04:27:40;;;;;;;54.50;19.30;;;;;;;4.90;71.79;98762.49;25088;1313;3026942;-67
2022/03/03 04:30:09;;;;;;;53.50;20.40;;;;;;;4.87;71.56;98762.13;25075;1313;3030105;-72
2022/03/03 04:32:39;;;;;;;56.60;20.70;;;;;;;4.73;72.05;98757.23;25081;1313;3026668;-75
2022/03/03 04:35:09;;;;;;;51.50;16.80;;;;;;;4.62;72.76;98759.52;25130;1313;3026345;-67
2022/03/03 04:37:38;;;;;;;57.20;20.20;;;;;;;5.17;72.15;98757.86;25184;1313;3026534;-74
2022/03/03 04:40:08;;;;;;;61.80;21.40;;;;;;;5.77;70.38;98754.48;25066;1313;3027361;-75
2022/03/03 04:42:37;;;;;;;72.50;25.60;;;;;;;5.87;69.94;98757.66;25074;1313;3053712;-68
2022/03/03 04:45:07;;;;;;;73.00;24.80;;;;;;;5.71;70.37;98755.67;25097;1313;3026592;-69
2022/03/03 04:47:36;;;;;;;77.30;27.20;;;;;;;5.54;70.74;98758.48;25117;1313;3026421;-71
2022/03/03 04:50:06;;;;;;;78.20;27.10;;;;;;;5.28;71.57;98757.90;25054;1313;3030850;-65
2022/03/03 04:55:45;;;;;;;90.00;31.30;;;;;;;5.22;71.48;98750.20;31411;1318;3026598;-68
2022/03/03 04:58:15;;;;;;;102.40;40.60;;;;;;;5.46;70.44;98752.48;25050;1316;3028704;-68
2022/03/03 05:00:44;;;;;;;93.70;34.50;;;;;;;5.66;69.45;98754.05;25101;1316;3026250;-66
2022/03/03 05:03:14;;;;;;;89.30;32.70;;;;;;;5.35;70.41;98750.06;25105;1316;3027542;-64
2022/03/03 05:05:43;;;;;;;84.10;28.90;;;;;;;5.17;71.18;98752.48;25027;1316;3026820;-69
2022/03/03 05:08:10;;;;;;;84.10;28.90;;;;;;;5.08;71.48;98752.79;23692;1316;5600938;-70
2022/03/03 05:10:38;;;;;;;77.90;35.30;;;;;;;5.19;71.40;98748.41;25039;1313;3054478;-67
2022/03/03 05:13:08;;;;;;;67.40;25.10;;;;;;;5.89;70.19;98743.96;25087;1313;3026803;-72
2022/03/03 05:15:38;;;;;;;75.00;28.80;;;;;;;6.10;68.97;98743.56;25161;1313;3026511;-70
2022/03/03 05:18:07;;;;;;;74.90;29.70;;;;;;;5.93;68.52;98738.60;25103;1313;3027075;-65
2022/03/03 05:20:38;;;;;;;65.90;28.10;;;;;;;5.76;69.09;98742.05;25042;1313;3026926;-66
2022/03/03 05:23:07;;;;;;;65.30;28.80;;;;;;;5.66;68.99;98739.45;25077;1313;3028723;-70
2022/03/03 05:25:36;;;;;;;62.60;27.30;;;;;;;5.35;69.66;98747.48;25079;1313;3026610;-71
2022/03/03 05:28:05;;;;;;;67.00;27.90;;;;;;;5.04;70.82;98745.37;25084;1313;3026559;-69
2022/03/03 05:30:34;;;;;;;66.10;26.60;;;;;;;4.96;71.07;98744.88;25063;1313;3048025;-73
2022/03/03 05:33:04;;;;;;;60.20;26.20;;;;;;;4.86;71.39;98742.58;25074;1313;3026588;-69
2022/03/03 05:35:33;;;;;;;60.90;26.80;;;;;;;4.81;71.47;98743.86;25104;1313;3070466;-69
2022/03/03 05:38:05;;;;;;;61.80;26.30;;;;;;;4.82;71.58;98743.62;25077;1313;3027629;-69
2022/03/03 05:40:34;;;;;;;58.90;25.60;;;;;;;4.82;71.41;98738.81;25084;1313;3026701;-67
2022/03/03 05:43:03;;;;;;;55.20;23.70;;;;;;;4.76;71.62;98737.02;25075;1313;3070507;-69
2022/03/03 05:45:33;;;;;;;61.60;26.10;;;;;;;4.73;71.72;98738.36;25082;1313;3026794;-67
2022/03/03 05:48:02;;;;;;;51.70;21.60;;;;;;;4.76;71.94;98736.31;25115;1315;3026618;-65
2022/03/03 05:50:32;;;;;;;52.60;21.20;;;;;;;5.23;70.62;98732.08;25110;1313;3070207;-71
2022/03/03 05:53:02;;;;;;;45.40;19.50;;;;;;;5.88;69.03;98730.86;25111;1313;3027215;-73
2022/03/03 05:55:31;;;;;;;54.50;21.80;;;;;;;5.94;67.78;98728.04;25066;1313;3026594;-70
2022/03/03 05:58:00;;;;;;;46.60;22.20;;;;;;;5.76;68.12;98727.95;25060;1313;3026498;-65
2022/03/03 06:00:29;;;;;;;52.10;22.80;;;;;;;5.69;68.65;98726.46;25084;1313;3048449;-66
2022/03/03 06:02:58;;;;;;;52.30;24.00;;;;;;;5.46;68.90;98732.45;25053;1313;3029937;-66
2022/03/03 06:05:27;;;;;;;55.80;24.90;;;;;;;5.43;69.36;98731.91;25036;1316;3069017;-66
2022/03/03 06:08:17;;;;;;;63.20;26.10;;;;;;;5.28;69.52;98730.29;25137;1313;3052199;-70
2022/03/03 06:10:50;;;;;;;67.40;26.70;;;;;;;5.02;70.52;98730.67;25117;1313;3052192;-71
2022/03/03 06:13:30;;;;;;;68.50;28.20;;;;;;;4.85;71.28;98730.33;25154;1313;3052096;-66
2022/03/03 06:15:59;;;;;;;73.10;26.70;;;;;;;4.79;71.68;98726.95;25068;1313;3058285;-72
2022/03/03 06:18:29;;;;;;;64.00;26.90;;;;;;;4.82;71.56;98720.55;25070;1313;3027519;-65
2022/03/03 06:20:59;;;;;;;63.00;25.10;;;;;;;4.79;71.64;98718.61;25059;1313;3051395;-66
2022/03/03 06:23:28;;;;;;;60.10;24.80;;;;;;;4.80;71.52;98716.83;25091;1313;3026188;-65
2022/03/03 06:26:03;;;;;;;66.60;24.90;;;;;;;4.82;71.37;98713.77;25073;1313;3026392;-70
2022/03/03 06:28:33;;;;;;;72.20;26.10;;;;;;;4.74;71.64;98714.89;25080;1312;3054387;-70
2022/03/03 06:31:04;;;;;;;60.80;22.60;;;;;;;4.60;72.74;98711.20;25110;1313;3028441;-69
2022/03/03 06:33:35;;;;;;;59.30;22.50;;;;;;;5.16;71.31;98709.51;25098;1313;3027459;-64
2022/03/03 06:36:04;;;;;;;60.20;23.60;;;;;;;5.86;69.61;98697.04;25137;1313;3030092;-68
2022/03/03 06:38:35;;;;;;;69.30;25.90;;;;;;;6.06;68.43;98690.77;25128;1313;3026830;-67
2022/03/03 06:41:05;;;;;;;65.90;25.00;;;;;;;6.04;68.66;98686.15;25156;1312;3027465;-70
2022/03/03 06:43:35;;;;;;;68.90;27.20;;;;;;;5.93;68.11;98684.34;25081;1313;3028114;-70
2022/03/03 06:46:05;;;;;;;74.10;28.00;;;;;;;5.70;68.83;98683.09;25133;1313;3027863;-69
2022/03/03 06:48:34;;;;;;;75.30;27.60;;;;;;;5.59;69.16;98683.34;25143;1316;3026646;-65
2022/03/03 06:51:04;;;;;;;70.40;26.90;;;;;;;5.42;69.69;98683.88;25050;1313;3026629;-65
2022/03/03 06:53:36;;;;;;;61.00;22.80;;;;;;;5.40;69.33;98677.53;25058;1313;3051343;-63
2022/03/03 06:56:07;;;;;;;57.10;24.40;;;;;;;5.39;69.25;98674.48;25114;1313;3026905;-67
2022/03/03 06:58:36;;;;;;;56.50;23.80;;;;;;;5.26;69.27;98672.05;25139;1313;3026601;-66
2022/03/03 07:01:09;;;;;;;51.50;21.40;;;;;;;5.19;69.62;98669.95;25065;1313;3027174;-70
2022/03/03 07:03:41;;;;;;;49.90;22.00;;;;;;;5.12;69.46;98673.61;25136;1313;3053927;-66
2022/03/03 07:06:18;;;;;;;58.40;23.40;;;;;;;4.97;70.39;98679.23;25069;1313;3053202;-75
2022/03/03 07:08:47;;;;;;;46.50;21.00;;;;;;;4.95;70.61;98673.59;25076;1312;3028675;-66
2022/03/03 07:11:16;;;;;;;56.30;22.50;;;;;;;5.07;70.14;98671.10;25052;1313;3055096;-67
2022/03/03 07:13:52;;;;;;;52.50;21.30;;;;;;;5.12;69.75;98673.77;25067;1316;3051536;-67
2022/03/03 07:16:26;;;;;;;55.00;21.80;;;;;;;5.05;69.78;98674.83;25057;1313;3026232;-71
2022/03/03 07:18:56;;;;;;;52.10;21.80;;;;;;;5.06;69.84;98674.60;25107;1313;3055738;-65
2022/03/03 07:21:37;;;;;;;53.20;23.70;;;;;;;5.07;69.89;98674.38;25065;1315;3026808;-66
2022/03/03 07:24:21;;;;;;;47.20;21.80;;;;;;;5.08;70.10;98663.02;25069;1313;3052239;-71
2022/03/03 07:26:51;;;;;;;46.00;20.70;;;;;;;5.17;69.50;98659.77;25045;1313;3053153;-75
2022/03/03 07:29:20;;;;;;;50.40;24.20;;;;;;;5.21;69.06;98660.13;25089;1313;3028279;-66
2022/03/03 07:31:55;;;;;;;51.60;22.90;;;;;;;5.15;69.34;98660.44;25057;1313;3049394;-70
2022/03/03 07:34:32;;;;;;;50.30;21.10;;;;;;;5.21;69.18;98656.67;25100;1313;3055580;-68
2022/03/03 07:37:05;;;;;;;50.00;21.80;;;;;;;5.20;69.32;98653.43;25059;1313;3049251;-67
2022/03/03 07:39:42;;;;;;;43.30;21.20;;;;;;;5.15;69.45;98645.81;25053;1313;3068589;-70
2022/03/03 07:42:16;;;;;;;38.70;18.00;;;;;;;5.21;68.83;98643.98;25031;1312;3049421;-69
2022/03/03 07:44:45;;;;;;;45.90;21.20;;;;;;;5.27;68.68;98642.27;25061;1313;3052171;-71
2022/03/03 07:47:15;;;;;;;44.60;20.70;;;;;;;5.35;68.59;98640.32;25067;1313;3027384;-69
2022/03/03 07:49:45;;;;;;;47.40;21.30;;;;;;;5.45;68.24;98638.91;25123;1313;3028247;-68
2022/03/03 07:52:14;;;;;;;45.70;20.30;;;;;;;5.52;67.55;98639.58;25153;1313;3051877;-70
2022/03/03 07:54:43;;;;;;;46.20;21.70;;;;;;;5.47;67.63;98632.39;25078;1313;3026996;-64
2022/03/03 07:57:15;;;;;;;42.50;18.60;;;;;;;5.42;67.56;98630.90;25099;1313;3048543;-68
2022/03/03 07:59:49;;;;;;;49.70;22.00;;;;;;;5.39;67.54;98628.43;25151;1313;3026716;-69
2022/03/03 08:02:22;;;;;;;;;;;;;;;5.24;68.12;98626.81;25087;1312;3052457;-68
2022/03/03 08:04:51;;;;;;;40.90;18.30;;;;;;;5.15;68.32;98629.37;25126;1313;3026864;-65
2022/03/03 08:07:20;;;;;;;49.00;21.00;;;;;;;5.06;68.88;98624.45;25070;1312;3026722;-64
2022/03/03 08:09:49;;;;;;;44.70;19.50;;;;;;;4.98;69.31;98621.19;25141;1313;3054142;-66
2022/03/03 08:12:18;;;;;;;39.50;17.60;;;;;;;4.91;69.30;98617.39;25066;1313;3026743;-64
2022/03/03 08:14:48;;;;;;;42.40;18.80;;;;;;;4.98;69.21;98613.91;25111;1316;3054844;-69
2022/03/03 08:17:18;;;;;;;41.90;18.80;;;;;;;5.01;69.08;98610.27;25057;1313;3026887;-65
2022/03/03 08:19:47;;;;;;;40.80;18.80;;;;;;;5.05;68.74;98605.39;25103;1312;3051619;-69
2022/03/03 08:22:17;;;;;;;39.70;18.00;;;;;;;5.07;68.27;98597.16;25053;1313;3026293;-66
2022/03/03 08:24:48;;;;;;;45.30;19.10;;;;;;;5.00;68.44;98593.15;25158;1313;3026458;-65
2022/03/03 08:27:17;;;;;;;37.50;17.30;;;;;;;4.96;68.56;98590.78;25106;1313;3027073;-67
2022/03/03 08:29:47;;;;;;;29.40;13.90;;;;;;;4.95;68.33;98580.06;25042;1313;3028145;-69
2022/03/03 08:32:17;;;;;;;32.90;15.40;;;;;;;4.91;68.18;98568.98;25138;1313;3049845;-63
2022/03/03 08:35:08;;;;;;;29.20;14.30;;;;;;;4.77;68.51;98563.81;25130;1313;3026265;-68
2022/03/03 08:37:41;;;;;;;34.00;13.80;;;;;;;4.87;68.47;98559.62;25134;1312;3049877;-69
2022/03/03 08:40:16;;;;;;;25.70;12.80;;;;;;;4.90;68.20;98554.77;25118;1313;3026651;-65
2022/03/03 08:42:48;;;;;;;29.80;15.00;;;;;;;4.92;68.11;98553.99;25111;1313;3050029;-70
2022/03/03 08:45:19;;;;;;;28.00;13.90;;;;;;;4.80;68.63;98551.31;25096;1313;3026625;-68
2022/03/03 08:47:56;;;;;;;28.20;13.70;;;;;;;4.78;69.00;98537.20;25126;1312;3026614;-66
2022/03/03 08:50:27;;;;;;;26.70;15.30;;;;;;;4.67;69.07;98531.67;25103;1313;3053366;-67
2022/03/03 08:52:57;;;;;;;28.60;15.50;;;;;;;4.75;69.19;98530.56;25077;1312;3028903;-70
2022/03/03 08:55:27;;;;;;;24.50;13.40;;;;;;;4.83;68.85;98526.17;25130;1313;3027069;-69
2022/03/03 08:57:58;;;;;;;26.40;13.10;;;;;;;4.89;68.46;98525.54;25131;1313;3026859;-68
2022/03/03 09:00:27;;;;;;;23.50;12.90;;;;;;;5.00;68.13;98528.08;25092;1313;3026826;-64
2022/03/03 09:02:57;;;;;;;23.50;12.90;;;;;;;5.03;67.73;98526.17;25106;1313;3028337;-69
2022/03/03 09:05:26;;;;;;;22.90;12.70;;;;;;;5.01;67.94;98523.48;25126;1313;3026164;-66
2022/03/03 09:07:55;;;;;;;27.00;13.10;;;;;;;5.06;67.87;98526.02;25143;1313;3026876;-67
2022/03/03 09:10:25;;;;;;;20.60;11.60;;;;;;;5.09;67.65;98522.36;25078;1313;3053251;-71
2022/03/03 09:12:55;;;;;;;20.80;11.90;;;;;;;5.07;67.35;98522.50;25045;1313;3026565;-71
2022/03/03 09:15:24;;;;;;;20.20;11.90;;;;;;;4.99;67.69;98518.90;25074;1313;3026455;-67
2022/03/03 09:17:54;;;;;;;20.10;12.00;;;;;;;4.97;67.46;98517.63;25138;1312;3027103;-66
2022/03/03 09:20:24;;;;;;;17.60;10.70;;;;;;;5.03;67.36;98518.87;25079;1313;3071344;-64
2022/03/03 09:22:56;;;;;;;19.10;10.30;;;;;;;5.08;67.02;98523.85;25133;1312;3026755;-68
2022/03/03 09:25:25;;;;;;;16.90;10.50;;;;;;;5.16;67.10;98527.54;25084;1313;3029488;-71
2022/03/03 09:27:55;;;;;;;15.20;9.10;;;;;;;5.12;66.86;98526.39;25063;1313;3070651;-68
2022/03/03 09:30:24;;;;;;;18.50;10.90;;;;;;;5.13;66.66;98524.96;25101;1313;3026709;-70
2022/03/03 09:32:53;;;;;;;21.30;12.10;;;;;;;5.01;67.39;98526.10;25062;1313;3051018;-63
2022/03/03 09:35:23;;;;;;;17.90;11.20;;;;;;;4.94;67.47;98523.16;25063;1313;3027130;-67
2022/03/03 09:37:53;;;;;;;17.40;9.80;;;;;;;4.99;67.49;98526.73;25100;1310;3026821;-70
2022/03/03 09:40:22;;;;;;;20.00;11.00;;;;;;;5.08;67.25;98527.11;25097;1313;3055302;-62
2022/03/03 09:42:56;;;;;;;16.80;10.70;;;;;;;4.99;67.44;98522.91;25086;1313;3026617;-66
2022/03/03 09:45:26;;;;;;;16.00;10.50;;;;;;;4.94;67.87;98519.00;25160;1312;3049436;-68
2022/03/03 09:47:56;;;;;;;19.60;11.10;;;;;;;4.89;67.98;98508.70;25088;1313;3026661;-69
2022/03/03 09:50:26;;;;;;;20.10;11.70;;;;;;;4.87;68.14;98506.02;25116;1313;3026477;-66
2022/03/03 09:52:55;;;;;;;20.40;11.80;;;;;;;4.85;68.22;98506.98;25102;1313;3028089;-68
2022/03/03 09:55:24;;;;;;;18.80;11.30;;;;;;;4.91;68.05;98500.94;25101;1313;3026826;-62
2022/03/03 09:57:54;;;;;;;19.60;10.70;;;;;;;4.86;67.76;98496.85;25131;1312;3051686;-62
2022/03/03 10:00:23;;;;;;;18.20;10.40;;;;;;;4.84;67.70;98496.45;25061;1313;3026591;-68
2022/03/03 10:02:54;;;;;;;17.90;10.90;;;;;;;4.65;67.87;98487.55;25100;1313;3053934;-66
2022/03/03 10:05:29;;;;;;;19.10;11.10;;;;;;;4.73;67.94;98490.98;25132;1313;3026569;-68
2022/03/03 10:08:05;;;;;;;16.90;10.30;;;;;;;4.85;67.26;98484.29;25132;1312;3059206;-69
2022/03/03 10:10:40;;;;;;;19.60;11.00;;;;;;;4.79;66.82;98480.59;25048;1313;3049646;-64
2022/03/03 10:13:09;;;;;;;18.00;10.50;;;;;;;4.73;66.89;98479.18;25083;1311;3055606;-63
2022/03/03 10:16:02;;;;;;;16.50;10.20;;;;;;;4.80;66.83;98475.48;25083;1313;3054477;-64
2022/03/03 10:18:32;;;;;;;17.10;10.20;;;;;;;4.99;66.43;98475.50;25105;1313;3071819;-68
2022/03/03 10:21:03;;;;;;;17.90;10.60;;;;;;;4.95;66.08;98471.73;25108;1313;3026365;-70
2022/03/03 10:23:34;;;;;;;17.20;10.30;;;;;;;5.00;65.92;98473.55;25131;1313;3026587;-67
2022/03/03 10:26:07;;;;;;;16.30;9.30;;;;;;;4.96;65.74;98473.44;25103;1313;3026695;-65
2022/03/03 10:28:37;;;;;;;13.50;9.00;;;;;;;4.93;65.92;98469.42;25088;1313;3026105;-65
2022/03/03 10:31:12;;;;;;;15.00;9.00;;;;;;;5.00;65.79;98469.77;25082;1313;3026631;-70
2022/03/03 10:33:46;;;;;;;12.70;8.60;;;;;;;5.08;65.14;98467.06;25151;1313;3052824;-63
2022/03/03 10:36:19;;;;;;;13.60;8.10;;;;;;;5.03;65.13;98464.89;25149;1313;3051883;-63
2022/03/03 10:38:49;;;;;;;13.40;9.20;;;;;;;4.89;65.42;98461.10;25085;1313;3026405;-65
2022/03/03 10:41:36;;;;;;;11.30;7.40;;;;;;;4.84;65.88;98452.39;25146;1313;3026895;-64
2022/03/03 10:44:09;;;;;;;10.70;7.50;;;;;;;4.85;65.64;98447.95;25082;1313;3055404;-62
2022/03/03 10:46:41;;;;;;;12.00;7.30;;;;;;;4.88;65.74;98443.31;25109;1313;3026838;-62
2022/03/03 10:49:18;;;;;;;10.00;6.60;;;;;;;4.99;65.39;98439.77;25190;1313;3026890;-69
2022/03/03 10:51:48;;;;;;;9.70;6.40;;;;;;;5.03;65.05;98434.55;25116;1313;3049554;-71
2022/03/03 10:54:19;;;;;;;14.60;7.20;;;;;;;4.96;64.98;98431.09;25180;1312;3026697;-65
2022/03/03 10:56:49;;;;;;;10.50;6.50;;;;;;;4.93;65.29;98427.08;25054;1316;3027936;-69
2022/03/03 10:59:22;;;;;;;12.50;7.50;;;;;;;4.90;65.47;98428.48;25220;1315;3026919;-68
2022/03/03 11:01:53;;;;;;;12.30;7.10;;;;;;;4.78;65.84;98421.98;25093;1316;3051851;-76
2022/03/03 11:04:23;;;;;;;8.10;5.70;;;;;;;4.90;65.35;98409.36;25094;1316;3026515;-68
2022/03/03 11:07:18;;;;;;;13.20;8.20;;;;;;;4.94;65.17;98402.38;25081;1316;3055046;-66
2022/03/03 11:10:38;;;;;;;11.30;7.70;;;;;;;5.00;65.34;98399.13;25040;1316;3057591;-65
2022/03/03 11:13:18;;;;;;;12.00;8.00;;;;;;;4.77;65.78;98399.69;25050;1314;3052113;-65
2022/03/03 11:15:48;;;;;;;12.50;7.40;;;;;;;4.85;65.88;98398.71;25041;1316;3026786;-67
2022/03/03 11:18:19;;;;;;;11.90;7.30;;;;;;;4.74;66.25;98400.90;25046;1316;3059260;-63
2022/03/03 11:20:48;;;;;;;16.80;7.30;;;;;;;4.75;66.30;98394.76;25006;1316;3026902;-69
2022/03/03 11:23:20;;;;;;;12.80;7.00;;;;;;;4.79;66.23;98394.71;25135;1316;3052140;-68
2022/03/03 11:25:50;;;;;;;9.70;6.60;;;;;;;4.73;66.41;98395.01;25032;1318;3026753;-68
2022/03/03 11:28:19;;;;;;;12.80;7.50;;;;;;;4.84;66.21;98396.35;25082;1315;3026601;-69
2022/03/03 11:31:39;;;;;;;11.40;7.40;;;;;;;4.85;66.34;98395.77;25021;1316;3053667;-64